createdAt,value
2017-01-04T00:00:14.784Z,924.11
2017-01-04T00:00:31.521Z,924.13
2017-01-04T00:00:48.267Z,924.09
2017-01-04T00:01:05.007Z,924.09
2017-01-04T00:01:21.743Z,924.14
2017-01-04T00:01:38.472Z,924.11
2017-01-04T00:01:55.172Z,924.14
2017-01-04T00:02:11.865Z,924.11
2017-01-04T00:02:28.604Z,924.14
2017-01-04T00:02:45.343Z,924.12
2017-01-04T00:03:02.162Z,924.13
2017-01-04T00:03:18.862Z,924.1
2017-01-04T00:03:35.589Z,924.13
2017-01-04T00:03:52.296Z,924.08
2017-01-04T00:04:08.996Z,924.11
2017-01-04T00:04:25.706Z,924.12
2017-01-04T00:04:42.459Z,924.13
2017-01-04T00:04:59.198Z,924.12
2017-01-04T00:05:15.937Z,924.14
2017-01-04T00:05:32.682Z,924.14
2017-01-04T00:05:49.392Z,924.17
2017-01-04T00:06:06.107Z,924.18
2017-01-04T00:06:22.859Z,924.15
2017-01-04T00:06:39.589Z,924.17
2017-01-04T00:06:56.328Z,924.12
2017-01-04T00:07:13.054Z,924.2
2017-01-04T00:07:29.786Z,924.15
2017-01-04T00:07:46.504Z,924.18
2017-01-04T00:08:03.338Z,924.15
2017-01-04T00:08:20.055Z,924.18
2017-01-04T00:08:36.794Z,924.18
2017-01-04T00:08:53.508Z,924.17
2017-01-04T00:09:10.226Z,924.18
2017-01-04T00:09:26.951Z,924.2
2017-01-04T00:09:43.659Z,924.17
2017-01-04T00:10:00.382Z,924.18
2017-01-04T00:10:17.106Z,924.17
2017-01-04T00:10:33.846Z,924.23
2017-01-04T00:10:50.561Z,924.17
2017-01-04T00:11:07.272Z,924.21
2017-01-04T00:11:24.006Z,924.22
2017-01-04T00:11:40.760Z,924.2
2017-01-04T00:11:57.459Z,924.21
2017-01-04T00:12:14.210Z,924.24
2017-01-04T00:12:30.950Z,924.21
2017-01-04T00:12:47.677Z,924.25
2017-01-04T00:13:05.046Z,924.23
2017-01-04T00:13:21.759Z,924.26
2017-01-04T00:13:38.479Z,924.29
2017-01-04T00:13:55.201Z,924.32
2017-01-04T00:14:11.912Z,924.35
2017-01-04T00:14:28.620Z,924.38
2017-01-04T00:14:45.323Z,924.39
2017-01-04T00:15:02.055Z,924.39
2017-01-04T00:15:18.994Z,924.47
2017-01-04T00:15:36.130Z,924.51
2017-01-04T00:15:52.865Z,924.49
2017-01-04T00:16:09.615Z,924.53
2017-01-04T00:16:26.365Z,924.53
2017-01-04T00:16:43.099Z,924.5
2017-01-04T00:16:59.827Z,924.54
2017-01-04T00:17:16.535Z,924.57
2017-01-04T00:17:33.242Z,924.57
2017-01-04T00:17:49.960Z,924.59
2017-01-04T00:18:06.675Z,924.59
2017-01-04T00:18:23.396Z,924.58
2017-01-04T00:18:40.104Z,924.63
2017-01-04T00:18:56.823Z,924.56
2017-01-04T00:19:13.558Z,924.63
2017-01-04T00:19:30.279Z,924.6
2017-01-04T00:19:46.987Z,924.62
2017-01-04T00:20:03.688Z,924.59
2017-01-04T00:20:20.393Z,924.59
2017-01-04T00:20:37.128Z,924.62
2017-01-04T00:20:53.879Z,924.6
2017-01-04T00:21:10.599Z,924.66
2017-01-04T00:21:27.355Z,924.65
2017-01-04T00:21:44.076Z,924.65
2017-01-04T00:22:00.798Z,924.68
2017-01-04T00:22:17.537Z,924.66
2017-01-04T00:22:34.257Z,924.67
2017-01-04T00:22:51.003Z,924.68
2017-01-04T00:23:07.805Z,924.69
2017-01-04T00:23:24.511Z,924.71
2017-01-04T00:23:41.215Z,924.7
2017-01-04T00:23:57.952Z,924.7
2017-01-04T00:24:14.674Z,924.71
2017-01-04T00:24:31.392Z,924.73
2017-01-04T00:24:48.131Z,924.73
2017-01-04T00:25:04.862Z,924.76
2017-01-04T00:25:21.559Z,924.72
2017-01-04T00:25:38.297Z,924.78
2017-01-04T00:25:55.308Z,924.77
2017-01-04T00:26:12.357Z,924.77
2017-01-04T00:26:29.083Z,924.78
2017-01-04T00:26:45.832Z,924.75
2017-01-04T00:27:02.550Z,924.77
2017-01-04T00:27:19.285Z,924.8
2017-01-04T00:27:36.003Z,924.81
2017-01-04T00:27:52.724Z,924.79
2017-01-04T00:28:09.478Z,924.8
2017-01-04T00:28:26.197Z,924.81
2017-01-04T00:28:42.914Z,924.85
2017-01-04T00:29:00.243Z,924.84
2017-01-04T00:29:16.963Z,924.81
2017-01-04T00:29:33.696Z,924.84
2017-01-04T00:29:50.399Z,924.83
2017-01-04T00:30:07.126Z,924.86
2017-01-04T00:30:23.833Z,924.83
2017-01-04T00:30:40.543Z,924.85
2017-01-04T00:30:57.244Z,924.82
2017-01-04T00:31:13.991Z,924.84
2017-01-04T00:31:30.740Z,924.85
2017-01-04T00:31:47.473Z,924.85
2017-01-04T00:32:04.229Z,924.86
2017-01-04T00:32:20.941Z,924.88
2017-01-04T00:32:37.675Z,924.86
2017-01-04T00:32:54.415Z,924.88
2017-01-04T00:33:11.247Z,924.89
2017-01-04T00:33:42.497Z,924.86
2017-01-04T00:33:59.221Z,924.88
2017-01-04T00:34:15.946Z,924.91
2017-01-04T00:34:32.678Z,924.87
2017-01-04T00:34:49.420Z,924.92
2017-01-04T00:35:06.149Z,924.89
2017-01-04T00:35:22.892Z,924.91
2017-01-04T00:35:39.638Z,924.89
2017-01-04T00:35:56.370Z,924.86
2017-01-04T00:36:13.104Z,924.86
2017-01-04T00:36:29.821Z,924.87
2017-01-04T00:36:46.548Z,924.84
2017-01-04T00:37:03.280Z,924.86
2017-01-04T00:37:20.010Z,924.86
2017-01-04T00:37:36.751Z,924.89
2017-01-04T00:37:53.469Z,924.87
2017-01-04T00:38:10.210Z,924.89
2017-01-04T00:38:26.958Z,924.91
2017-01-04T00:38:43.670Z,924.89
2017-01-04T00:39:00.390Z,924.91
2017-01-04T00:39:17.115Z,924.91
2017-01-04T00:39:33.852Z,924.92
2017-01-04T00:39:50.575Z,924.95
2017-01-04T00:40:07.315Z,924.94
2017-01-04T00:40:24.047Z,924.97
2017-01-04T00:40:40.791Z,924.94
2017-01-04T00:40:57.513Z,924.96
2017-01-04T00:41:14.248Z,924.95
2017-01-04T00:41:30.979Z,924.95
2017-01-04T00:41:47.694Z,924.91
2017-01-04T00:42:04.395Z,924.93
2017-01-04T00:42:21.121Z,924.91
2017-01-04T00:42:37.815Z,924.93
2017-01-04T00:42:54.558Z,924.96
2017-01-04T00:43:11.284Z,924.9
2017-01-04T00:43:28.035Z,924.93
2017-01-04T00:43:44.763Z,924.94
2017-01-04T00:44:01.481Z,924.94
2017-01-04T00:44:18.197Z,924.97
2017-01-04T00:44:34.889Z,924.9
2017-01-04T00:44:51.678Z,924.95
2017-01-04T00:45:08.821Z,924.95
2017-01-04T00:45:25.764Z,924.94
2017-01-04T00:45:42.503Z,924.97
2017-01-04T00:45:59.222Z,924.96
2017-01-04T00:46:15.941Z,924.96
2017-01-04T00:46:32.667Z,924.98
2017-01-04T00:46:49.366Z,925
2017-01-04T00:47:06.103Z,924.97
2017-01-04T00:47:22.813Z,924.96
2017-01-04T00:47:39.515Z,924.98
2017-01-04T00:47:56.234Z,924.97
2017-01-04T00:48:13.128Z,925.02
2017-01-04T00:48:29.866Z,925.01
2017-01-04T00:48:46.574Z,924.99
2017-01-04T00:49:03.307Z,925.01
2017-01-04T00:49:20.023Z,925.03
2017-01-04T00:49:36.759Z,925.08
2017-01-04T00:49:53.483Z,925.09
2017-01-04T00:50:10.220Z,925.11
2017-01-04T00:50:26.964Z,925.13
2017-01-04T00:50:43.690Z,925.15
2017-01-04T00:51:00.421Z,925.14
2017-01-04T00:51:17.138Z,925.17
2017-01-04T00:51:33.838Z,925.17
2017-01-04T00:51:50.566Z,925.21
2017-01-04T00:52:07.279Z,925.21
2017-01-04T00:52:24.005Z,925.2
2017-01-04T00:52:40.724Z,925.23
2017-01-04T00:52:57.492Z,925.21
2017-01-04T00:53:14.332Z,925.19
2017-01-04T00:53:31.080Z,925.21
2017-01-04T00:53:47.843Z,925.26
2017-01-04T00:54:04.533Z,925.24
2017-01-04T00:54:21.254Z,925.3
2017-01-04T00:54:37.965Z,925.29
2017-01-04T00:54:54.638Z,925.31
2017-01-04T00:55:11.362Z,925.27
2017-01-04T00:55:28.114Z,925.29
2017-01-04T00:55:44.847Z,925.34
2017-01-04T00:56:01.573Z,925.32
2017-01-04T00:56:18.297Z,925.33
2017-01-04T00:56:35.025Z,925.31
2017-01-04T00:56:51.741Z,925.34
2017-01-04T00:57:08.455Z,925.31
2017-01-04T00:57:25.174Z,925.32
2017-01-04T00:57:41.893Z,925.36
2017-01-04T00:57:58.627Z,925.33
2017-01-04T00:58:15.330Z,925.33
2017-01-04T00:58:32.042Z,925.35
2017-01-04T00:58:48.773Z,925.37
2017-01-04T00:59:05.501Z,925.37
2017-01-04T00:59:22.240Z,925.38
2017-01-04T00:59:38.971Z,925.36
2017-01-04T00:59:55.704Z,925.39
2017-01-04T01:00:12.447Z,925.41
2017-01-04T01:00:29.176Z,925.41
2017-01-04T01:00:45.934Z,925.37
2017-01-04T01:01:02.658Z,925.4
2017-01-04T01:01:19.379Z,925.41
2017-01-04T01:01:36.114Z,925.44
2017-01-04T01:01:52.870Z,925.44
2017-01-04T01:02:09.627Z,925.45
2017-01-04T01:02:26.358Z,925.45
2017-01-04T01:02:43.072Z,925.42
2017-01-04T01:02:59.777Z,925.45
2017-01-04T01:03:16.587Z,925.46
2017-01-04T01:03:33.304Z,925.48
2017-01-04T01:03:50.037Z,925.49
2017-01-04T01:04:06.736Z,925.49
2017-01-04T01:04:23.445Z,925.49
2017-01-04T01:04:40.209Z,925.5
2017-01-04T01:04:56.933Z,925.53
2017-01-04T01:05:13.637Z,925.55
2017-01-04T01:05:30.361Z,925.52
2017-01-04T01:05:47.072Z,925.53
2017-01-04T01:06:03.814Z,925.55
2017-01-04T01:06:20.534Z,925.51
2017-01-04T01:06:37.236Z,925.54
2017-01-04T01:06:53.974Z,925.54
2017-01-04T01:07:10.712Z,925.52
2017-01-04T01:07:27.439Z,925.55
2017-01-04T01:07:44.185Z,925.57
2017-01-04T01:08:00.946Z,925.58
2017-01-04T01:08:17.896Z,925.58
2017-01-04T01:08:34.614Z,925.62
2017-01-04T01:08:51.327Z,925.65
2017-01-04T01:09:08.042Z,925.61
2017-01-04T01:09:24.754Z,925.63
2017-01-04T01:09:41.451Z,925.62
2017-01-04T01:09:58.169Z,925.64
2017-01-04T01:10:14.897Z,925.67
2017-01-04T01:10:31.648Z,925.65
2017-01-04T01:10:48.385Z,925.64
2017-01-04T01:11:05.122Z,925.65
2017-01-04T01:11:21.818Z,925.7
2017-01-04T01:11:38.512Z,925.65
2017-01-04T01:11:55.247Z,925.69
2017-01-04T01:12:11.965Z,925.7
2017-01-04T01:12:28.672Z,925.73
2017-01-04T01:12:45.415Z,925.71
2017-01-04T01:13:02.121Z,925.69
2017-01-04T01:13:18.824Z,925.7
2017-01-04T01:13:35.545Z,925.69
2017-01-04T01:13:52.247Z,925.71
2017-01-04T01:14:08.964Z,925.71
2017-01-04T01:14:25.695Z,925.71
2017-01-04T01:14:42.418Z,925.69
2017-01-04T01:14:59.147Z,925.7
2017-01-04T01:15:15.866Z,925.7
2017-01-04T01:15:32.611Z,925.7
2017-01-04T01:15:49.322Z,925.71
2017-01-04T01:16:06.062Z,925.68
2017-01-04T01:16:22.807Z,925.69
2017-01-04T01:16:39.534Z,925.73
2017-01-04T01:16:56.272Z,925.76
2017-01-04T01:17:12.983Z,925.68
2017-01-04T01:17:29.690Z,925.67
2017-01-04T01:17:46.415Z,925.7
2017-01-04T01:18:03.129Z,925.7
2017-01-04T01:18:19.877Z,925.71
2017-01-04T01:18:36.581Z,925.72
2017-01-04T01:18:53.316Z,925.71
2017-01-04T01:19:10.053Z,925.71
2017-01-04T01:19:26.774Z,925.7
2017-01-04T01:19:43.483Z,925.66
2017-01-04T01:20:00.203Z,925.74
2017-01-04T01:20:16.898Z,925.7
2017-01-04T01:20:33.602Z,925.72
2017-01-04T01:20:50.338Z,925.72
2017-01-04T01:21:07.079Z,925.73
2017-01-04T01:21:23.811Z,925.72
2017-01-04T01:21:40.515Z,925.69
2017-01-04T01:21:57.261Z,925.72
2017-01-04T01:22:13.972Z,925.69
2017-01-04T01:22:30.699Z,925.73
2017-01-04T01:22:47.415Z,925.74
2017-01-04T01:23:04.157Z,925.75
2017-01-04T01:23:20.979Z,925.74
2017-01-04T01:23:37.726Z,925.73
2017-01-04T01:23:54.471Z,925.76
2017-01-04T01:24:11.213Z,925.76
2017-01-04T01:24:27.923Z,925.76
2017-01-04T01:24:44.627Z,925.76
2017-01-04T01:25:01.348Z,925.78
2017-01-04T01:25:18.056Z,925.75
2017-01-04T01:25:34.756Z,925.72
2017-01-04T01:25:51.487Z,925.74
2017-01-04T01:26:08.212Z,925.75
2017-01-04T01:26:24.944Z,925.74
2017-01-04T01:26:41.696Z,925.74
2017-01-04T01:26:58.399Z,925.78
2017-01-04T01:27:15.126Z,925.75
2017-01-04T01:27:31.833Z,925.74
2017-01-04T01:27:48.567Z,925.71
2017-01-04T01:28:05.304Z,925.75
2017-01-04T01:28:22.014Z,925.76
2017-01-04T01:28:38.777Z,925.78
2017-01-04T01:28:56.080Z,925.8
2017-01-04T01:29:12.788Z,925.76
2017-01-04T01:29:29.486Z,925.78
2017-01-04T01:29:46.216Z,925.76
2017-01-04T01:30:02.957Z,925.77
2017-01-04T01:30:19.704Z,925.77
2017-01-04T01:30:36.434Z,925.77
2017-01-04T01:30:53.166Z,925.78
2017-01-04T01:31:09.888Z,925.77
2017-01-04T01:31:26.604Z,925.77
2017-01-04T01:31:43.360Z,925.74
2017-01-04T01:32:00.106Z,925.75
2017-01-04T01:32:16.879Z,925.78
2017-01-04T01:32:33.609Z,925.8
2017-01-04T01:32:50.349Z,925.82
2017-01-04T01:33:07.090Z,925.79
2017-01-04T01:33:23.926Z,925.79
2017-01-04T01:33:40.658Z,925.8
2017-01-04T01:33:57.371Z,925.82
2017-01-04T01:34:14.115Z,925.82
2017-01-04T01:34:30.864Z,925.82
2017-01-04T01:34:47.590Z,925.83
2017-01-04T01:35:04.318Z,925.86
2017-01-04T01:35:21.047Z,925.84
2017-01-04T01:35:37.803Z,925.89
2017-01-04T01:35:54.542Z,925.89
2017-01-04T01:36:11.269Z,925.9
2017-01-04T01:36:27.990Z,925.92
2017-01-04T01:36:44.714Z,925.95
2017-01-04T01:37:01.439Z,925.96
2017-01-04T01:37:18.765Z,926.02
2017-01-04T01:37:35.486Z,926.02
2017-01-04T01:37:52.211Z,926.05
2017-01-04T01:38:08.943Z,926.05
2017-01-04T01:38:25.767Z,926.05
2017-01-04T01:38:42.491Z,926.07
2017-01-04T01:38:59.205Z,926.11
2017-01-04T01:39:15.927Z,926.09
2017-01-04T01:39:32.672Z,926.12
2017-01-04T01:39:49.392Z,926.09
2017-01-04T01:40:06.101Z,926.15
2017-01-04T01:40:22.818Z,926.16
2017-01-04T01:40:39.539Z,926.18
2017-01-04T01:40:56.250Z,926.19
2017-01-04T01:41:12.960Z,926.22
2017-01-04T01:41:29.706Z,926.27
2017-01-04T01:41:46.433Z,926.24
2017-01-04T01:42:03.139Z,926.26
2017-01-04T01:42:19.892Z,926.29
2017-01-04T01:42:36.613Z,926.27
2017-01-04T01:42:53.330Z,926.26
2017-01-04T01:43:10.045Z,926.27
2017-01-04T01:43:26.765Z,926.27
2017-01-04T01:43:43.485Z,926.31
2017-01-04T01:44:00.220Z,926.33
2017-01-04T01:44:17.567Z,926.32
2017-01-04T01:44:34.295Z,926.35
2017-01-04T01:44:51.023Z,926.33
2017-01-04T01:45:07.773Z,926.31
2017-01-04T01:45:24.514Z,926.29
2017-01-04T01:45:41.242Z,926.3
2017-01-04T01:45:57.950Z,926.3
2017-01-04T01:46:14.665Z,926.34
2017-01-04T01:46:31.381Z,926.32
2017-01-04T01:46:48.102Z,926.3
2017-01-04T01:47:04.855Z,926.31
2017-01-04T01:47:21.592Z,926.29
2017-01-04T01:47:38.313Z,926.32
2017-01-04T01:47:55.054Z,926.35
2017-01-04T01:48:11.758Z,926.32
2017-01-04T01:48:28.584Z,926.33
2017-01-04T01:48:45.302Z,926.3
2017-01-04T01:49:02.015Z,926.33
2017-01-04T01:49:18.740Z,926.28
2017-01-04T01:49:35.488Z,926.29
2017-01-04T01:49:52.217Z,926.27
2017-01-04T01:50:08.943Z,926.27
2017-01-04T01:50:25.656Z,926.25
2017-01-04T01:50:42.420Z,926.24
2017-01-04T01:50:59.185Z,926.27
2017-01-04T01:51:16.750Z,926.25
2017-01-04T01:51:33.483Z,926.24
2017-01-04T01:51:50.187Z,926.27
2017-01-04T01:52:06.943Z,926.25
2017-01-04T01:52:23.698Z,926.23
2017-01-04T01:52:40.404Z,926.23
2017-01-04T01:52:57.128Z,926.24
2017-01-04T01:53:13.871Z,926.24
2017-01-04T01:53:30.690Z,926.25
2017-01-04T01:53:47.388Z,926.23
2017-01-04T01:54:04.128Z,926.25
2017-01-04T01:54:20.883Z,926.18
2017-01-04T01:54:37.592Z,926.23
2017-01-04T01:54:54.369Z,926.2
2017-01-04T01:55:11.088Z,926.22
2017-01-04T01:55:27.790Z,926.2
2017-01-04T01:55:45.087Z,926.18
2017-01-04T01:56:01.819Z,926.12
2017-01-04T01:56:18.551Z,926.18
2017-01-04T01:56:35.276Z,926.2
2017-01-04T01:56:52.000Z,926.18
2017-01-04T01:57:08.729Z,926.17
2017-01-04T01:57:27.910Z,926.13
2017-01-04T01:57:44.657Z,926.15
2017-01-04T01:58:01.371Z,926.16
2017-01-04T01:58:18.169Z,926.16
2017-01-04T01:58:34.889Z,926.14
2017-01-04T01:58:51.618Z,926.14
2017-01-04T01:59:08.356Z,926.15
2017-01-04T01:59:25.075Z,926.13
2017-01-04T01:59:41.773Z,926.14
2017-01-04T01:59:58.508Z,926.17
2017-01-04T02:00:15.248Z,926.16
2017-01-04T02:00:32.002Z,926.19
2017-01-04T02:00:48.711Z,926.2
2017-01-04T02:01:05.429Z,926.17
2017-01-04T02:01:22.142Z,926.17
2017-01-04T02:01:38.866Z,926.18
2017-01-04T02:01:55.586Z,926.21
2017-01-04T02:02:12.314Z,926.2
2017-01-04T02:02:29.028Z,926.17
2017-01-04T02:02:45.741Z,926.16
2017-01-04T02:03:02.442Z,926.22
2017-01-04T02:03:19.193Z,926.16
2017-01-04T02:03:35.993Z,926.17
2017-01-04T02:03:52.764Z,926.13
2017-01-04T02:04:09.497Z,926.15
2017-01-04T02:04:26.220Z,926.13
2017-01-04T02:04:42.959Z,926.15
2017-01-04T02:04:59.674Z,926.11
2017-01-04T02:05:16.400Z,926.07
2017-01-04T02:05:33.159Z,926.07
2017-01-04T02:05:49.897Z,926.1
2017-01-04T02:06:06.595Z,926.12
2017-01-04T02:06:23.299Z,926.06
2017-01-04T02:06:40.021Z,926.09
2017-01-04T02:06:56.721Z,926.1
2017-01-04T02:07:13.424Z,926.07
2017-01-04T02:07:30.139Z,926.06
2017-01-04T02:07:46.867Z,926.1
2017-01-04T02:08:03.576Z,926.08
2017-01-04T02:08:20.283Z,926.09
2017-01-04T02:08:37.154Z,926.03
2017-01-04T02:08:53.877Z,926.06
2017-01-04T02:09:10.582Z,926.07
2017-01-04T02:09:27.301Z,926.03
2017-01-04T02:09:44.039Z,926.05
2017-01-04T02:10:00.797Z,926.01
2017-01-04T02:10:17.768Z,926.01
2017-01-04T02:10:34.452Z,925.99
2017-01-04T02:10:51.183Z,925.98
2017-01-04T02:11:07.927Z,925.99
2017-01-04T02:11:24.670Z,925.98
2017-01-04T02:11:41.983Z,925.95
2017-01-04T02:11:58.715Z,925.95
2017-01-04T02:12:15.433Z,925.99
2017-01-04T02:12:32.224Z,925.95
2017-01-04T02:12:48.937Z,925.97
2017-01-04T02:13:05.695Z,925.95
2017-01-04T02:13:22.442Z,925.94
2017-01-04T02:13:39.148Z,926.01
2017-01-04T02:13:55.852Z,925.98
2017-01-04T02:14:12.549Z,925.96
2017-01-04T02:14:29.256Z,925.98
2017-01-04T02:14:45.964Z,925.98
2017-01-04T02:15:02.667Z,926.03
2017-01-04T02:15:19.346Z,926.01
2017-01-04T02:15:36.034Z,925.98
2017-01-04T02:15:52.761Z,926.02
2017-01-04T02:16:10.094Z,925.97
2017-01-04T02:16:26.834Z,925.99
2017-01-04T02:16:43.537Z,925.99
2017-01-04T02:17:00.258Z,925.97
2017-01-04T02:17:16.993Z,926.01
2017-01-04T02:17:33.702Z,925.98
2017-01-04T02:17:50.459Z,925.95
2017-01-04T02:18:07.182Z,925.96
2017-01-04T02:18:23.894Z,925.98
2017-01-04T02:18:40.623Z,925.98
2017-01-04T02:18:57.360Z,925.99
2017-01-04T02:19:14.086Z,925.98
2017-01-04T02:19:30.829Z,925.95
2017-01-04T02:19:47.923Z,925.96
2017-01-04T02:20:04.889Z,925.93
2017-01-04T02:20:21.626Z,925.97
2017-01-04T02:20:38.341Z,925.95
2017-01-04T02:20:55.065Z,925.95
2017-01-04T02:21:11.783Z,925.95
2017-01-04T02:21:28.496Z,925.94
2017-01-04T02:21:45.218Z,925.92
2017-01-04T02:22:01.930Z,925.91
2017-01-04T02:22:18.694Z,925.9
2017-01-04T02:22:35.400Z,925.92
2017-01-04T02:22:52.145Z,925.89
2017-01-04T02:23:08.883Z,925.93
2017-01-04T02:23:26.201Z,925.92
2017-01-04T02:23:43.020Z,925.9
2017-01-04T02:23:59.759Z,925.9
2017-01-04T02:24:16.475Z,925.93
2017-01-04T02:24:33.211Z,925.9
2017-01-04T02:24:50.351Z,925.92
2017-01-04T02:25:07.076Z,925.9
2017-01-04T02:25:23.764Z,925.93
2017-01-04T02:25:40.515Z,925.96
2017-01-04T02:25:57.242Z,925.92
2017-01-04T02:26:13.984Z,925.91
2017-01-04T02:26:30.736Z,926.01
2017-01-04T02:26:47.461Z,926
2017-01-04T02:27:04.171Z,925.99
2017-01-04T02:27:20.906Z,925.97
2017-01-04T02:27:37.602Z,925.96
2017-01-04T02:27:54.326Z,925.95
2017-01-04T02:28:11.182Z,925.97
2017-01-04T02:28:27.895Z,925.95
2017-01-04T02:28:44.611Z,925.94
2017-01-04T02:29:01.368Z,925.95
2017-01-04T02:29:18.102Z,925.95
2017-01-04T02:29:34.831Z,925.93
2017-01-04T02:29:51.564Z,925.94
2017-01-04T02:30:08.300Z,925.88
2017-01-04T02:30:25.032Z,925.9
2017-01-04T02:30:42.405Z,925.9
2017-01-04T02:30:59.139Z,925.87
2017-01-04T02:31:15.878Z,925.89
2017-01-04T02:31:32.594Z,925.9
2017-01-04T02:31:49.301Z,925.92
2017-01-04T02:32:06.029Z,925.87
2017-01-04T02:32:54.000Z,925.84
2017-01-04T02:33:10.735Z,925.83
2017-01-04T02:33:27.456Z,925.8
2017-01-04T02:33:44.189Z,925.79
2017-01-04T02:34:00.915Z,925.79
2017-01-04T02:34:17.642Z,925.79
2017-01-04T02:34:34.374Z,925.78
2017-01-04T02:34:51.103Z,925.82
2017-01-04T02:35:07.800Z,925.77
2017-01-04T02:35:24.513Z,925.78
2017-01-04T02:35:41.240Z,925.78
2017-01-04T02:35:57.973Z,925.76
2017-01-04T02:36:14.682Z,925.73
2017-01-04T02:36:31.435Z,925.75
2017-01-04T02:36:48.158Z,925.77
2017-01-04T02:37:04.859Z,925.75
2017-01-04T02:37:21.591Z,925.74
2017-01-04T02:37:38.312Z,925.74
2017-01-04T02:37:55.647Z,925.71
2017-01-04T02:38:12.372Z,925.74
2017-01-04T02:38:29.091Z,925.71
2017-01-04T02:38:45.891Z,925.68
2017-01-04T02:39:02.617Z,925.66
2017-01-04T02:39:19.338Z,925.66
2017-01-04T02:39:36.049Z,925.63
2017-01-04T02:39:52.783Z,925.61
2017-01-04T02:40:09.494Z,925.6
2017-01-04T02:40:26.213Z,925.6
2017-01-04T02:40:42.947Z,925.57
2017-01-04T02:40:59.663Z,925.59
2017-01-04T02:41:16.407Z,925.59
2017-01-04T02:41:33.131Z,925.58
2017-01-04T02:41:49.868Z,925.57
2017-01-04T02:42:06.618Z,925.58
2017-01-04T02:42:23.329Z,925.55
2017-01-04T02:42:40.041Z,925.6
2017-01-04T02:42:56.742Z,925.58
2017-01-04T02:43:13.482Z,925.54
2017-01-04T02:43:30.242Z,925.56
2017-01-04T02:43:46.977Z,925.53
2017-01-04T02:44:03.714Z,925.56
2017-01-04T02:44:20.449Z,925.53
2017-01-04T02:44:37.205Z,925.53
2017-01-04T02:44:53.919Z,925.49
2017-01-04T02:45:10.679Z,925.48
2017-01-04T02:45:27.401Z,925.46
2017-01-04T02:45:44.134Z,925.45
2017-01-04T02:46:00.907Z,925.47
2017-01-04T02:46:17.629Z,925.48
2017-01-04T02:46:34.349Z,925.48
2017-01-04T02:46:51.089Z,925.46
2017-01-04T02:47:07.845Z,925.43
2017-01-04T02:47:24.609Z,925.49
2017-01-04T02:47:41.345Z,925.46
2017-01-04T02:47:58.068Z,925.44
2017-01-04T02:48:14.813Z,925.46
2017-01-04T02:48:31.558Z,925.41
2017-01-04T02:48:48.399Z,925.44
2017-01-04T02:49:05.742Z,925.4
2017-01-04T02:49:22.471Z,925.41
2017-01-04T02:49:39.168Z,925.44
2017-01-04T02:49:55.888Z,925.45
2017-01-04T02:50:12.619Z,925.43
2017-01-04T02:50:29.353Z,925.43
2017-01-04T02:50:46.095Z,925.41
2017-01-04T02:51:02.853Z,925.4
2017-01-04T02:51:19.591Z,925.4
2017-01-04T02:51:36.321Z,925.37
2017-01-04T02:51:53.053Z,925.37
2017-01-04T02:52:09.765Z,925.38
2017-01-04T02:52:26.483Z,925.36
2017-01-04T02:52:43.234Z,925.37
2017-01-04T02:52:59.966Z,925.31
2017-01-04T02:53:16.700Z,925.38
2017-01-04T02:53:33.424Z,925.33
2017-01-04T02:53:50.263Z,925.35
2017-01-04T02:54:06.987Z,925.3
2017-01-04T02:54:23.696Z,925.34
2017-01-04T02:54:40.408Z,925.33
2017-01-04T02:54:57.130Z,925.35
2017-01-04T02:55:13.860Z,925.33
2017-01-04T02:55:30.579Z,925.35
2017-01-04T02:55:47.291Z,925.3
2017-01-04T02:56:04.015Z,925.3
2017-01-04T02:56:20.721Z,925.29
2017-01-04T02:56:37.452Z,925.33
2017-01-04T02:56:54.204Z,925.29
2017-01-04T02:57:10.906Z,925.29
2017-01-04T02:57:27.599Z,925.27
2017-01-04T02:57:44.321Z,925.28
2017-01-04T02:58:01.049Z,925.24
2017-01-04T02:58:17.759Z,925.24
2017-01-04T02:58:34.520Z,925.27
2017-01-04T02:58:51.229Z,925.24
2017-01-04T02:59:07.953Z,925.26
2017-01-04T02:59:24.667Z,925.27
2017-01-04T02:59:41.390Z,925.24
2017-01-04T02:59:58.099Z,925.2
2017-01-04T03:00:15.411Z,925.21
2017-01-04T03:00:32.131Z,925.18
2017-01-04T03:00:51.659Z,925.19
2017-01-04T03:01:08.387Z,925.17
2017-01-04T03:01:26.320Z,925.21
2017-01-04T03:01:43.015Z,925.17
2017-01-04T03:01:59.753Z,925.16
2017-01-04T03:02:16.490Z,925.13
2017-01-04T03:02:33.232Z,925.14
2017-01-04T03:02:49.933Z,925.15
2017-01-04T03:03:06.667Z,925.16
2017-01-04T03:03:23.386Z,925.12
2017-01-04T03:03:40.107Z,925.11
2017-01-04T03:03:56.836Z,925.11
2017-01-04T03:04:13.567Z,925.08
2017-01-04T03:04:30.317Z,925.1
2017-01-04T03:04:47.047Z,925.09
2017-01-04T03:05:03.756Z,925.04
2017-01-04T03:05:20.484Z,925.03
2017-01-04T03:05:37.209Z,925.04
2017-01-04T03:05:53.906Z,925.04
2017-01-04T03:06:10.655Z,925.03
2017-01-04T03:06:27.398Z,925.03
2017-01-04T03:06:44.130Z,925.02
2017-01-04T03:07:01.438Z,925
2017-01-04T03:07:18.139Z,924.99
2017-01-04T03:07:34.858Z,924.97
2017-01-04T03:07:51.569Z,924.99
2017-01-04T03:08:08.308Z,924.98
2017-01-04T03:08:25.050Z,924.97
2017-01-04T03:08:41.780Z,924.96
2017-01-04T03:08:58.512Z,924.98
2017-01-04T03:09:15.218Z,924.96
2017-01-04T03:09:31.937Z,924.92
2017-01-04T03:09:48.680Z,924.91
2017-01-04T03:10:05.383Z,924.91
2017-01-04T03:10:22.093Z,924.93
2017-01-04T03:10:38.799Z,924.92
2017-01-04T03:10:55.535Z,924.91
2017-01-04T03:11:12.245Z,924.89
2017-01-04T03:11:28.967Z,924.94
2017-01-04T03:11:45.703Z,924.87
2017-01-04T03:12:02.390Z,924.88
2017-01-04T03:12:19.136Z,924.88
2017-01-04T03:12:35.867Z,924.88
2017-01-04T03:12:52.588Z,924.86
2017-01-04T03:13:09.311Z,924.85
2017-01-04T03:13:26.022Z,924.84
2017-01-04T03:13:42.764Z,924.87
2017-01-04T03:13:59.515Z,924.87
2017-01-04T03:14:16.229Z,924.81
2017-01-04T03:14:32.970Z,924.84
2017-01-04T03:14:49.713Z,924.82
2017-01-04T03:15:06.429Z,924.85
2017-01-04T03:15:23.123Z,924.85
2017-01-04T03:15:39.843Z,924.82
2017-01-04T03:15:56.613Z,924.85
2017-01-04T03:16:13.328Z,924.8
2017-01-04T03:16:30.038Z,924.78
2017-01-04T03:16:46.798Z,924.81
2017-01-04T03:17:03.518Z,924.8
2017-01-04T03:17:20.253Z,924.79
2017-01-04T03:17:36.998Z,924.77
2017-01-04T03:17:53.742Z,924.8
2017-01-04T03:18:10.440Z,924.8
2017-01-04T03:18:27.164Z,924.78
2017-01-04T03:18:43.891Z,924.75
2017-01-04T03:19:00.621Z,924.76
2017-01-04T03:19:17.349Z,924.74
2017-01-04T03:19:34.094Z,924.72
2017-01-04T03:19:50.809Z,924.74
2017-01-04T03:20:07.532Z,924.72
2017-01-04T03:20:24.289Z,924.71
2017-01-04T03:20:41.012Z,924.7
2017-01-04T03:20:57.736Z,924.68
2017-01-04T03:21:14.485Z,924.66
2017-01-04T03:21:31.715Z,924.65
2017-01-04T03:21:48.449Z,924.69
2017-01-04T03:22:05.179Z,924.62
2017-01-04T03:22:21.899Z,924.66
2017-01-04T03:22:38.649Z,924.59
2017-01-04T03:22:55.467Z,924.62
2017-01-04T03:23:12.193Z,924.57
2017-01-04T03:23:28.916Z,924.6
2017-01-04T03:23:45.692Z,924.57
2017-01-04T03:24:02.426Z,924.54
2017-01-04T03:24:19.160Z,924.55
2017-01-04T03:24:35.901Z,924.56
2017-01-04T03:24:52.633Z,924.56
2017-01-04T03:25:09.352Z,924.53
2017-01-04T03:25:26.073Z,924.52
2017-01-04T03:25:42.836Z,924.49
2017-01-04T03:25:59.561Z,924.49
2017-01-04T03:26:16.287Z,924.5
2017-01-04T03:26:33.019Z,924.5
2017-01-04T03:26:49.762Z,924.49
2017-01-04T03:27:06.478Z,924.47
2017-01-04T03:27:23.224Z,924.49
2017-01-04T03:27:39.980Z,924.45
2017-01-04T03:27:56.739Z,924.48
2017-01-04T03:28:13.454Z,924.44
2017-01-04T03:28:30.166Z,924.46
2017-01-04T03:28:47.982Z,924.46
2017-01-04T03:29:04.696Z,924.43
2017-01-04T03:29:21.415Z,924.49
2017-01-04T03:29:38.129Z,924.45
2017-01-04T03:29:54.830Z,924.43
2017-01-04T03:30:11.550Z,924.41
2017-01-04T03:30:28.278Z,924.45
2017-01-04T03:30:45.041Z,924.39